TimeMST,TemperatureF,Dew PointF,Humidity,Sea Level PressureIn,VisibilityMPH,Wind Direction,Wind SpeedMPH,Gust SpeedMPH,PrecipitationIn,Events,Conditions,WindDirDegrees,DateUTC
12:55 AM,33.8,23.0,65,29.99,10.0,South,10.4,-,N/A,,Scattered Clouds,180,2013-01-26 07:55:00
1:55 AM,33.8,24.8,70,29.99,10.0,South,8.1,-,N/A,,Scattered Clouds,190,2013-01-26 08:55:00
2:55 AM,33.8,24.8,70,29.95,10.0,South,11.5,-,N/A,,Scattered Clouds,180,2013-01-26 09:55:00
3:55 AM,33.8,24.8,70,29.95,10.0,South,8.1,-,N/A,,Scattered Clouds,190,2013-01-26 10:55:00
4:55 AM,33.8,24.8,70,29.97,10.0,South,6.9,-,N/A,,Scattered Clouds,190,2013-01-26 11:55:00
5:55 AM,32.0,24.8,75,29.98,10.0,South,6.9,-,N/A,,Scattered Clouds,180,2013-01-26 12:55:00
6:55 AM,33.8,24.8,70,29.98,70.0,South,15.0,-,N/A,,Mostly Cloudy,190,2013-01-26 13:55:00
7:55 AM,37.4,24.8,60,29.98,70.0,South,8.1,-,N/A,,Mostly Cloudy,170,2013-01-26 14:55:00
8:55 AM,41.0,24.8,53,29.99,70.0,South,8.1,-,N/A,,Mostly Cloudy,190,2013-01-26 15:55:00
9:55 AM,48.2,26.6,43,29.96,70.0,SW,8.1,-,N/A,,Mostly Cloudy,230,2013-01-26 16:55:00
10:55 AM,48.2,24.8,40,29.97,70.0,NW,4.6,-,N/A,,Mostly Cloudy,320,2013-01-26 17:55:00
11:55 AM,50.0,24.8,37,29.93,70.0,Calm,Calm,-,N/A,,Mostly Cloudy,0,2013-01-26 18:55:00
12:55 PM,53.6,26.6,35,29.86,70.0,East,3.5,-,N/A,,Mostly Cloudy,100,2013-01-26 19:55:00
1:55 PM,53.6,26.6,35,29.81,70.0,East,5.8,-,N/A,,Overcast,80,2013-01-26 20:55:00
2:55 PM,53.6,26.6,35,29.80,70.0,ENE,8.1,-,N/A,,Overcast,70,2013-01-26 21:55:00
3:55 PM,50.0,28.4,43,29.80,70.0,ENE,8.1,-,N/A,,Overcast,60,2013-01-26 22:55:00
4:55 PM,46.4,28.4,50,29.79,25.0,NNE,5.8,-,N/A,,Overcast,30,2013-01-26 23:55:00
5:55 PM,44.6,28.4,53,29.81,25.0,NW,5.8,-,N/A,,Overcast,320,2013-01-27 00:55:00
6:14 PM,42.8,30.2,61,29.85,7.0,NW,4.6,-,N/A,Rain,Light Rain Showers,320,2013-01-27 01:14:00
6:55 PM,41.0,32.0,70,29.83,7.0,NW,4.6,-,N/A,Rain,Light Rain Showers,320,2013-01-27 01:55:00
7:55 PM,41.0,32.0,70,29.80,7.0,WNW,3.5,-,N/A,Rain,Light Rain Showers,290,2013-01-27 02:55:00
8:55 PM,37.4,35.6,93,29.78,7.0,NW,3.5,-,N/A,Rain,Light Rain Showers,310,2013-01-27 03:55:00
9:55 PM,37.4,37.4,100,29.74,7.0,SSW,3.5,-,N/A,,Overcast,200,2013-01-27 04:55:00
10:55 PM,37.4,37.4,100,29.72,7.0,SSW,4.6,-,N/A,,Overcast,200,2013-01-27 05:55:00
11:55 PM,37.4,37.4,100,29.69,7.0,SW,3.5,-,N/A,,Scattered Clouds,220,2013-01-27 06:55:00